createdAt,value
2022-09-10T00:02:00.427Z,80.34
2022-09-10T00:05:00.702Z,80.32
2022-09-10T00:07:58.445Z,80.35
2022-09-10T00:10:55.869Z,80.40
2022-09-10T00:13:53.346Z,80.40
2022-09-10T00:16:50.804Z,80.34
2022-09-10T00:19:48.235Z,80.30
2022-09-10T00:22:45.659Z,80.29
2022-09-10T00:25:43.119Z,80.30
2022-09-10T00:28:40.511Z,80.23
2022-09-10T00:31:38.079Z,80.28
2022-09-10T00:34:35.574Z,80.24
2022-09-10T00:37:33.006Z,80.07
2022-09-10T00:40:30.417Z,80.03
2022-09-10T00:43:27.850Z,80.00
2022-09-10T00:46:25.369Z,80.00
2022-09-10T00:49:22.801Z,80.00
2022-09-10T00:52:20.233Z,79.98
2022-09-10T00:55:17.722Z,79.88
2022-09-10T00:58:15.286Z,79.95
2022-09-10T01:01:13.479Z,79.98
2022-09-10T01:04:11.055Z,80.12
2022-09-10T01:07:09.895Z,80.19
2022-09-10T01:10:07.322Z,80.21
2022-09-10T01:13:04.730Z,80.20
2022-09-10T01:16:03.221Z,80.19
2022-09-10T01:19:00.688Z,80.20
2022-09-10T01:21:58.149Z,80.27
2022-09-10T01:24:55.751Z,80.25
2022-09-10T01:27:53.199Z,80.21
2022-09-10T01:30:50.606Z,80.21
2022-09-10T01:33:48.028Z,80.28
2022-09-10T01:36:45.668Z,80.23
2022-09-10T01:39:43.136Z,80.20
2022-09-10T01:42:40.612Z,80.24
2022-09-10T01:45:38.082Z,80.33
2022-09-10T01:48:35.684Z,80.39
2022-09-10T01:51:35.043Z,80.40
2022-09-10T01:54:33.734Z,80.44
2022-09-10T01:57:31.199Z,80.49
2022-09-10T02:00:28.599Z,80.52
2022-09-10T02:03:26.056Z,80.54
2022-09-10T02:06:23.456Z,80.53
2022-09-10T02:09:21.139Z,80.44
2022-09-10T02:12:20.055Z,80.42
2022-09-10T02:15:18.415Z,80.35
2022-09-10T02:18:15.875Z,80.30
2022-09-10T02:21:13.280Z,80.31
2022-09-10T02:24:10.703Z,80.36
2022-09-10T02:27:08.130Z,80.32
2022-09-10T02:30:05.554Z,80.23
2022-09-10T02:33:03.040Z,80.19
2022-09-10T02:36:00.832Z,80.20
2022-09-10T02:38:58.318Z,80.20
2022-09-10T02:41:56.037Z,80.21
2022-09-10T02:44:53.623Z,80.29
2022-09-10T02:47:51.140Z,80.31
2022-09-10T02:50:48.586Z,80.35
2022-09-10T02:53:45.994Z,80.40
2022-09-10T02:56:43.428Z,80.40
2022-09-10T02:59:40.851Z,80.47
2022-09-10T03:02:38.273Z,80.51
2022-09-10T03:05:38.811Z,80.51
2022-09-10T03:08:36.238Z,80.57
2022-09-10T03:11:34.950Z,80.63
2022-09-10T03:14:32.385Z,80.68
2022-09-10T03:17:29.827Z,80.70
2022-09-10T03:20:27.659Z,80.73
2022-09-10T03:23:25.073Z,80.79
2022-09-10T03:26:22.530Z,80.80
2022-09-10T03:29:19.954Z,80.82
2022-09-10T03:32:17.375Z,80.85
2022-09-10T03:35:16.255Z,80.82
2022-09-10T03:38:14.108Z,80.82
2022-09-10T03:41:11.559Z,80.82
2022-09-10T03:44:08.958Z,80.80
2022-09-10T03:47:06.416Z,80.80
2022-09-10T03:50:03.846Z,80.79
2022-09-10T03:53:04.194Z,80.79
2022-09-10T03:56:01.633Z,80.80
2022-09-10T03:58:59.049Z,80.79
2022-09-10T04:01:56.798Z,80.79
2022-09-10T04:04:54.347Z,80.80
2022-09-10T04:07:51.786Z,80.80
2022-09-10T04:10:49.547Z,80.80
2022-09-10T04:13:49.161Z,80.76
2022-09-10T04:16:46.661Z,80.70
2022-09-10T04:19:44.108Z,80.72
2022-09-10T04:22:41.543Z,80.70
2022-09-10T04:25:38.982Z,80.62
2022-09-10T04:28:36.593Z,80.60
2022-09-10T04:31:34.105Z,80.60
2022-09-10T04:34:31.606Z,80.57
2022-09-10T04:37:29.046Z,80.47
2022-09-10T04:40:27.427Z,80.43
2022-09-10T04:43:25.702Z,80.41
2022-09-10T04:46:23.865Z,80.32
2022-09-10T04:49:21.281Z,80.19
2022-09-10T04:52:18.733Z,80.11
2022-09-10T04:55:16.151Z,80.00
2022-09-10T04:58:13.571Z,79.92
2022-09-10T05:01:11.084Z,79.81
2022-09-10T05:04:08.567Z,79.68
2022-09-10T05:07:06.010Z,79.54
2022-09-10T05:10:03.403Z,79.40
2022-09-10T05:13:01.102Z,79.32
2022-09-10T05:15:59.095Z,79.24
2022-09-10T05:18:57.061Z,79.12
2022-09-10T05:21:54.529Z,79.05
2022-09-10T05:24:51.978Z,78.97
2022-09-10T05:27:49.452Z,78.88
2022-09-10T05:30:51.357Z,78.80
2022-09-10T05:33:49.311Z,78.74
2022-09-10T05:36:46.757Z,78.77
2022-09-10T05:39:44.230Z,78.67
2022-09-10T05:42:41.695Z,78.60
2022-09-10T05:45:39.153Z,78.54
2022-09-10T05:48:40.968Z,78.44
2022-09-10T05:51:39.186Z,78.18
2022-09-10T05:54:37.150Z,77.89
2022-09-10T05:57:34.598Z,77.67
2022-09-10T06:00:32.040Z,77.32
2022-09-10T06:03:29.481Z,76.97
2022-09-10T06:06:28.506Z,76.54
2022-09-10T06:09:26.094Z,76.20
2022-09-10T06:12:23.525Z,76.02
2022-09-10T06:15:21.330Z,75.45
2022-09-10T06:18:19.341Z,74.88
2022-09-10T06:21:16.760Z,74.44
2022-09-10T06:24:14.192Z,73.76
2022-09-10T06:27:12.002Z,73.28
2022-09-10T06:30:09.453Z,72.89
2022-09-10T06:33:06.886Z,71.92
2022-09-10T06:36:04.338Z,71.12
2022-09-10T06:39:03.518Z,70.20
2022-09-10T06:42:01.410Z,69.01
2022-09-10T06:45:00.259Z,67.80
2022-09-10T06:51:15.109Z,65.86
2022-09-10T06:54:13.215Z,63.92
2022-09-10T06:57:11.600Z,63.13
2022-09-10T07:00:09.053Z,62.13
2022-09-10T07:03:07.108Z,61.24
2022-09-10T07:06:04.546Z,60.61
2022-09-10T07:09:01.966Z,59.82
2022-09-10T07:11:59.559Z,59.22
2022-09-10T07:14:56.982Z,58.29
2022-09-10T07:17:54.414Z,57.32
2022-09-10T07:20:51.837Z,55.97
2022-09-10T07:23:52.034Z,55.25
2022-09-10T07:26:49.523Z,54.17
2022-09-10T07:29:46.939Z,52.68
2022-09-10T07:32:45.916Z,52.20
2022-09-10T07:35:43.345Z,51.61
2022-09-10T07:38:40.902Z,51.04
2022-09-10T07:41:38.574Z,50.16
2022-09-10T07:44:36.022Z,49.61
2022-09-10T07:47:33.460Z,49.07
2022-09-10T07:50:30.895Z,48.22
2022-09-10T07:53:28.330Z,47.04
2022-09-10T07:56:25.879Z,45.97
2022-09-10T07:59:23.298Z,45.22
2022-09-10T08:02:22.192Z,44.19
2022-09-10T08:05:19.660Z,43.54
2022-09-10T08:08:17.092Z,43.45
2022-09-10T08:11:14.542Z,43.21
2022-09-10T08:14:13.407Z,42.53
2022-09-10T08:17:11.073Z,42.28
2022-09-10T08:20:09.034Z,42.05
2022-09-10T08:23:06.754Z,41.76
2022-09-10T08:26:04.731Z,41.02
2022-09-10T08:29:02.845Z,41.39
2022-09-10T08:32:00.270Z,41.71
2022-09-10T08:34:57.701Z,41.67
2022-09-10T08:37:55.116Z,41.27
2022-09-10T08:40:52.546Z,41.13
2022-09-10T08:43:49.996Z,41.40
2022-09-10T08:46:48.641Z,41.76
2022-09-10T08:49:46.091Z,41.53
2022-09-10T08:52:43.533Z,40.95
2022-09-10T08:55:45.061Z,40.72
2022-09-10T08:58:45.819Z,40.40
2022-09-10T09:01:43.443Z,39.88
2022-09-10T09:04:40.898Z,39.47
2022-09-10T09:07:39.567Z,38.83
2022-09-10T09:10:36.985Z,38.37
2022-09-10T09:13:34.458Z,38.52
2022-09-10T09:16:32.450Z,38.49
2022-09-10T09:19:29.907Z,38.20
2022-09-10T09:22:27.499Z,37.89
2022-09-10T09:25:24.973Z,37.54
2022-09-10T09:28:22.415Z,37.93
2022-09-10T09:31:20.220Z,38.30
2022-09-10T09:34:19.579Z,38.58
2022-09-10T09:37:17.367Z,38.91
2022-09-10T09:40:15.185Z,38.67
2022-09-10T09:43:12.706Z,38.30
2022-09-10T09:46:10.646Z,37.23
2022-09-10T09:49:08.086Z,36.46
2022-09-10T09:52:05.514Z,35.35
2022-09-10T09:55:14.362Z,34.18
2022-09-10T09:58:12.905Z,33.35
2022-09-10T10:01:10.400Z,32.47
2022-09-10T10:04:09.177Z,31.48
2022-09-10T10:07:06.641Z,30.75
2022-09-10T10:10:04.066Z,30.48
2022-09-10T10:13:01.534Z,29.24
2022-09-10T10:15:59.030Z,29.87
2022-09-10T10:18:56.465Z,30.36
2022-09-10T10:21:54.669Z,30.79
2022-09-10T10:24:54.060Z,31.47
2022-09-10T10:27:54.511Z,31.58
2022-09-10T10:30:52.015Z,31.20
2022-09-10T10:33:49.470Z,30.56
2022-09-10T10:36:46.882Z,31.25
2022-09-10T10:39:44.707Z,31.84
2022-09-10T10:42:42.156Z,31.98
2022-09-10T10:45:39.568Z,31.74
2022-09-10T10:48:37.124Z,30.80
2022-09-10T10:51:34.619Z,31.08
2022-09-10T10:54:32.049Z,31.89
2022-09-10T10:57:29.485Z,32.78
2022-09-10T11:00:28.732Z,33.09
2022-09-10T11:03:26.105Z,32.55
2022-09-10T11:06:24.705Z,31.93
2022-09-10T11:09:22.155Z,31.70
2022-09-10T11:12:20.092Z,31.51
2022-09-10T11:15:17.623Z,31.40
2022-09-10T11:18:15.051Z,30.77
2022-09-10T11:21:12.479Z,30.77
2022-09-10T11:24:11.978Z,30.33
2022-09-10T11:27:12.552Z,29.56
2022-09-10T11:30:10.118Z,29.31
2022-09-10T11:33:07.543Z,29.17
2022-09-10T11:36:05.277Z,29.12
2022-09-10T11:39:02.800Z,28.92
2022-09-10T11:42:00.228Z,28.88
2022-09-10T11:44:58.249Z,27.93
2022-09-10T11:47:57.372Z,27.45
2022-09-10T11:50:54.808Z,27.12
2022-09-10T11:53:52.353Z,26.39
2022-09-10T11:56:50.205Z,26.26
2022-09-10T11:59:47.629Z,26.70
2022-09-10T12:02:45.063Z,27.17
2022-09-10T12:05:43.844Z,27.99
2022-09-10T12:08:41.259Z,28.78
2022-09-10T12:11:38.673Z,29.19
2022-09-10T12:14:36.118Z,29.53
2022-09-10T12:17:33.644Z,30.04
2022-09-10T12:20:31.082Z,30.46
2022-09-10T12:23:28.508Z,31.31
2022-09-10T12:26:25.938Z,32.45
2022-09-10T12:29:23.370Z,33.43
2022-09-10T12:32:21.010Z,33.90
2022-09-10T12:35:18.450Z,34.49
2022-09-10T12:38:15.960Z,35.11
2022-09-10T12:41:14.986Z,35.80
2022-09-10T12:44:12.869Z,36.49
2022-09-10T12:47:10.282Z,37.02
2022-09-10T12:50:07.729Z,37.17
2022-09-10T12:53:05.301Z,37.47
2022-09-10T12:56:02.761Z,37.49
2022-09-10T12:59:00.195Z,37.21
2022-09-10T13:01:57.712Z,36.54
2022-09-10T13:04:55.253Z,35.64
2022-09-10T13:07:52.670Z,35.12
2022-09-10T13:10:51.075Z,35.33
2022-09-10T13:13:48.610Z,35.34
2022-09-10T13:16:46.038Z,35.28
2022-09-10T13:19:43.554Z,35.24
2022-09-10T13:22:42.292Z,35.25
2022-09-10T13:25:41.525Z,35.08
2022-09-10T13:28:40.988Z,35.04
2022-09-10T13:31:38.397Z,34.69
2022-09-10T13:34:36.231Z,34.53
2022-09-10T13:37:33.681Z,34.92
2022-09-10T13:40:31.162Z,35.08
2022-09-10T13:43:28.607Z,35.32
2022-09-10T13:46:26.150Z,35.70
2022-09-10T13:49:23.577Z,35.76
2022-09-10T13:52:20.995Z,36.08
2022-09-10T13:55:18.425Z,36.17
2022-09-10T13:58:16.604Z,36.10
2022-09-10T14:01:14.064Z,36.18
2022-09-10T14:04:12.552Z,36.41
2022-09-10T14:07:13.259Z,36.55
2022-09-10T14:10:10.732Z,36.42
2022-09-10T14:13:08.206Z,36.50
2022-09-10T14:16:05.667Z,36.57
2022-09-10T14:19:03.182Z,36.69
2022-09-10T14:22:01.719Z,36.76
2022-09-10T14:24:59.991Z,36.80
2022-09-10T14:27:57.441Z,36.76
2022-09-10T14:30:55.825Z,36.67
2022-09-10T14:33:53.351Z,36.80
2022-09-10T14:36:50.779Z,36.85
2022-09-10T14:39:49.101Z,37.01
2022-09-10T14:42:46.582Z,36.80
2022-09-10T14:45:43.993Z,36.70
2022-09-10T14:48:41.472Z,36.64
2022-09-10T14:51:38.883Z,36.74
2022-09-10T14:54:37.153Z,36.94
2022-09-10T14:57:35.514Z,37.16
2022-09-10T15:00:32.941Z,37.31
2022-09-10T15:03:30.394Z,37.64
2022-09-10T15:06:27.805Z,37.86
2022-09-10T15:09:25.223Z,38.09
2022-09-10T15:12:22.663Z,38.39
2022-09-10T15:15:20.119Z,38.69
2022-09-10T15:18:18.060Z,39.28
2022-09-10T15:21:15.487Z,39.88
2022-09-10T15:24:12.936Z,40.58
2022-09-10T15:27:10.366Z,41.17
2022-09-10T15:30:07.929Z,41.79
2022-09-10T15:33:05.500Z,42.33
2022-09-10T15:36:02.924Z,42.74
2022-09-10T15:39:00.816Z,43.21
2022-09-10T15:41:59.840Z,43.57
2022-09-10T15:44:57.264Z,43.79
2022-09-10T15:47:55.212Z,44.09
2022-09-10T15:50:52.631Z,44.37
2022-09-10T15:53:50.073Z,44.63
2022-09-10T15:56:47.476Z,44.85
2022-09-10T15:59:44.909Z,45.24
2022-09-10T16:02:42.362Z,45.67
2022-09-10T16:05:39.802Z,45.92
2022-09-10T16:08:37.384Z,46.05
2022-09-10T16:11:34.854Z,46.33
2022-09-10T16:14:33.372Z,46.68
2022-09-10T16:17:31.926Z,47.02
2022-09-10T16:20:29.385Z,47.33
2022-09-10T16:23:26.790Z,47.72
2022-09-10T16:26:24.250Z,48.19
2022-09-10T16:29:21.844Z,48.55
2022-09-10T16:32:19.294Z,49.01
2022-09-10T16:35:16.819Z,49.37
2022-09-10T16:38:14.334Z,49.87
2022-09-10T16:41:11.768Z,50.49
2022-09-10T16:44:09.191Z,50.88
2022-09-10T16:47:06.640Z,51.33
2022-09-10T16:50:05.634Z,51.62
2022-09-10T16:53:03.373Z,51.56
2022-09-10T16:56:02.037Z,51.41
2022-09-10T16:58:59.443Z,51.13
2022-09-10T17:01:59.632Z,50.91
2022-09-10T17:04:57.093Z,50.97
2022-09-10T17:07:54.515Z,51.03
2022-09-10T17:10:51.941Z,51.04
2022-09-10T17:13:51.124Z,51.17
2022-09-10T17:16:50.044Z,51.36
2022-09-10T17:19:47.477Z,51.52
2022-09-10T17:22:44.924Z,51.72
2022-09-10T17:25:42.363Z,51.96
2022-09-10T17:28:40.591Z,52.17
2022-09-10T17:31:38.206Z,52.54
2022-09-10T17:34:35.611Z,52.88
2022-09-10T17:37:33.804Z,53.28
2022-09-10T17:40:31.245Z,53.63
2022-09-10T17:43:28.680Z,53.91
2022-09-10T17:46:26.753Z,54.19
2022-09-10T17:49:24.549Z,54.45
2022-09-10T17:52:22.004Z,54.63
2022-09-10T17:55:19.462Z,54.81
2022-09-10T17:58:16.996Z,54.98
2022-09-10T18:01:14.466Z,55.23
2022-09-10T18:04:14.480Z,55.38
2022-09-10T18:07:11.960Z,55.54
2022-09-10T18:10:10.230Z,55.65
2022-09-10T18:13:08.429Z,55.97
2022-09-10T18:16:06.217Z,56.16
2022-09-10T18:19:04.462Z,56.30
2022-09-10T18:22:02.759Z,56.51
2022-09-10T18:25:00.599Z,56.63
2022-09-10T18:27:58.401Z,56.78
2022-09-10T18:30:56.252Z,56.97
2022-09-10T18:33:54.032Z,57.14
2022-09-10T18:36:53.874Z,57.33
2022-09-10T18:39:51.714Z,57.57
2022-09-10T18:42:49.485Z,57.85
2022-09-10T18:45:47.616Z,58.10
2022-09-10T18:48:47.065Z,58.31
2022-09-10T18:51:45.116Z,58.55
2022-09-10T18:54:46.603Z,58.73
2022-09-10T18:57:44.728Z,58.89
2022-09-10T19:00:42.194Z,59.08
2022-09-10T19:03:39.669Z,59.26
2022-09-10T19:06:37.460Z,59.44
2022-09-10T19:09:35.337Z,59.64
2022-09-10T19:12:33.122Z,59.86
2022-09-10T19:15:31.457Z,59.96
2022-09-10T19:18:29.302Z,60.13
2022-09-10T19:21:27.022Z,60.30
2022-09-10T19:24:43.936Z,60.45
2022-09-10T19:27:45.496Z,60.61
2022-09-10T19:30:43.319Z,60.72
2022-09-10T19:33:41.901Z,60.88
2022-09-10T19:36:39.822Z,61.07
2022-09-10T19:39:37.702Z,61.23
2022-09-10T19:42:35.620Z,61.38
2022-09-10T19:45:33.464Z,61.53
2022-09-10T19:48:30.953Z,61.69
2022-09-10T19:51:28.605Z,61.81
2022-09-10T19:54:28.667Z,62.00
2022-09-10T19:57:26.377Z,62.32
2022-09-10T20:00:45.547Z,62.50
2022-09-10T20:03:42.059Z,62.52
2022-09-10T20:06:39.798Z,62.62
2022-09-10T20:09:39.948Z,62.80
2022-09-10T20:12:38.063Z,63.04
2022-09-10T20:15:35.650Z,63.22
2022-09-10T20:18:33.402Z,63.17
2022-09-10T20:21:31.849Z,63.25
2022-09-10T20:24:29.291Z,63.37
2022-09-10T20:27:27.667Z,63.42
2022-09-10T20:30:25.193Z,63.48
2022-09-10T20:33:22.770Z,63.42
2022-09-10T20:36:20.182Z,63.43
2022-09-10T20:39:18.074Z,63.49
2022-09-10T20:42:15.497Z,63.58
2022-09-10T20:45:12.947Z,63.67
2022-09-10T20:48:10.404Z,63.72
2022-09-10T20:51:09.701Z,63.81
2022-09-10T20:54:07.125Z,63.90
2022-09-10T20:57:04.546Z,63.94
2022-09-10T21:00:01.927Z,64.03
2022-09-10T21:02:59.359Z,64.08
2022-09-10T21:05:56.817Z,64.18
2022-09-10T21:08:56.143Z,64.20
2022-09-10T21:11:53.610Z,64.24
2022-09-10T21:14:51.363Z,64.34
2022-09-10T21:17:49.282Z,64.40
2022-09-10T21:20:46.702Z,64.44
2022-09-10T21:23:44.869Z,64.59
2022-09-10T21:26:43.577Z,64.63
2022-09-10T21:29:41.155Z,64.70
2022-09-10T21:32:38.577Z,64.75
2022-09-10T21:35:35.999Z,64.86
2022-09-10T21:38:35.192Z,64.97
2022-09-10T21:41:32.671Z,65.01
2022-09-10T21:44:32.544Z,65.12
2022-09-10T21:47:29.932Z,65.25
2022-09-10T21:50:28.622Z,65.34
2022-09-10T21:53:27.180Z,65.45
2022-09-10T21:56:25.007Z,65.50
2022-09-10T21:59:22.446Z,65.55
2022-09-10T22:02:20.222Z,65.53
2022-09-10T22:05:17.845Z,65.57
2022-09-10T22:08:15.599Z,65.61
2022-09-10T22:11:14.331Z,65.72
2022-09-10T22:14:12.172Z,65.72
2022-09-10T22:17:09.618Z,65.76
2022-09-10T22:20:07.069Z,65.80
2022-09-10T22:23:04.496Z,65.78
2022-09-10T22:26:03.247Z,65.78
2022-09-10T22:29:00.838Z,65.79
2022-09-10T22:31:58.261Z,65.70
2022-09-10T22:34:55.693Z,65.70
2022-09-10T22:37:53.117Z,65.71
2022-09-10T22:40:51.565Z,65.69
2022-09-10T22:43:48.971Z,65.70
2022-09-10T22:46:46.480Z,65.77
2022-09-10T22:49:45.054Z,65.67
2022-09-10T22:52:43.766Z,65.61
2022-09-10T22:55:41.226Z,65.59
2022-09-10T22:58:39.317Z,65.54
2022-09-10T23:01:36.817Z,65.52
2022-09-10T23:04:34.263Z,65.44
2022-09-10T23:07:31.694Z,65.42
2022-09-10T23:10:29.226Z,65.34
2022-09-10T23:13:26.672Z,65.34
2022-09-10T23:16:24.202Z,65.38
2022-09-10T23:19:21.657Z,65.32
2022-09-10T23:22:19.137Z,65.29
2022-09-10T23:25:18.262Z,65.28
2022-09-10T23:28:15.705Z,65.33
2022-09-10T23:31:14.244Z,65.37
2022-09-10T23:34:11.710Z,65.46
2022-09-10T23:37:10.264Z,65.56
2022-09-10T23:40:12.063Z,65.64
2022-09-10T23:43:10.399Z,65.78
2022-09-10T23:46:07.897Z,65.86
2022-09-10T23:49:05.349Z,65.94
2022-09-10T23:52:02.802Z,65.99
2022-09-10T23:55:00.334Z,65.98
2022-09-10T23:57:58.010Z,66.09
